Terminal Aerodrome Forecast
Issued by NWS

Home | Current Version | Previous Version | Text Only | Print | Product List | Glossary On
Versions: 1 2 3 4 5 6 7 8 9 10 11 12 13 14 15 16 17 18 19
000
FTUS43 KDLH 281100
TAFHYR
TAF
KHYR 281123Z 2812/0112 20004KT P6SM SCT200
     FM281800 19011KT P6SM BKN150
     FM282300 18008KT P6SM BKN100
     FM010500 19005KT 6SM -SN BKN025 OVC050
     FM011000 21006KT P6SM BKN030 OVC060=

USA.gov is the U.S. government's official web portal to all federal, state and local government web resources and services.